sensor_id;sensor_type;location;lat;lon;timestamp;pressure;altitude;pressure_sealevel;temperature;humidity
54850;BME280;47660;51.334;12.396;2023-05-16T00:01:55;99707.09;;;21.68;53.06
54850;BME280;47660;51.334;12.396;2023-05-16T00:04:21;99709.44;;;21.86;52.53
54850;BME280;47660;51.334;12.396;2023-05-16T00:06:47;99707.56;;;21.72;52.21
54850;BME280;47660;51.334;12.396;2023-05-16T00:09:15;99711.56;;;22.06;51.60
54850;BME280;47660;51.334;12.396;2023-05-16T00:11:41;99713.19;;;21.85;52.14
54850;BME280;47660;51.334;12.396;2023-05-16T00:14:09;99703.44;;;21.91;52.82
54850;BME280;47660;51.334;12.396;2023-05-16T00:16:35;99719.72;;;21.37;53.36
54850;BME280;47660;51.334;12.396;2023-05-16T00:19:01;99715.50;;;21.88;52.13
54850;BME280;47660;51.334;12.396;2023-05-16T00:21:27;99718.16;;;21.43;53.42
54850;BME280;47660;51.334;12.396;2023-05-16T00:23:52;99728.91;;;20.90;54.63
54850;BME280;47660;51.334;12.396;2023-05-16T00:26:18;99734.38;;;20.50;56.47
54850;BME280;47660;51.334;12.396;2023-05-16T00:28:46;99734.31;;;21.13;55.75
54850;BME280;47660;51.334;12.396;2023-05-16T00:31:13;99731.31;;;21.08;54.93
54850;BME280;47660;51.334;12.396;2023-05-16T00:33:39;99738.47;;;20.77;55.68
54850;BME280;47660;51.334;12.396;2023-05-16T00:36:05;99737.25;;;20.80;55.55
54850;BME280;47660;51.334;12.396;2023-05-16T00:38:30;99730.63;;;21.29;54.43
54850;BME280;47660;51.334;12.396;2023-05-16T00:40:55;99729.31;;;21.40;53.72
54850;BME280;47660;51.334;12.396;2023-05-16T00:43:21;99733.13;;;21.31;54.12
54850;BME280;47660;51.334;12.396;2023-05-16T00:45:46;99740.59;;;20.51;56.89
54850;BME280;47660;51.334;12.396;2023-05-16T00:48:16;99741.25;;;21.07;55.55
54850;BME280;47660;51.334;12.396;2023-05-16T00:50:47;99748.63;;;20.67;56.27
54850;BME280;47660;51.334;12.396;2023-05-16T00:53:13;99739.69;;;21.36;54.05
54850;BME280;47660;51.334;12.396;2023-05-16T00:55:39;99734.47;;;21.50;53.24
54850;BME280;47660;51.334;12.396;2023-05-16T00:58:08;99757.41;;;20.61;57.38
54850;BME280;47660;51.334;12.396;2023-05-16T01:00:34;99756.41;;;20.30;57.30
54850;BME280;47660;51.334;12.396;2023-05-16T01:03:03;99767.31;;;21.23;56.59
54850;BME280;47660;51.334;12.396;2023-05-16T01:05:30;99757.47;;;21.07;56.04
54850;BME280;47660;51.334;12.396;2023-05-16T01:07:55;99753.94;;;20.84;55.43
54850;BME280;47660;51.334;12.396;2023-05-16T01:10:25;99758.19;;;21.25;55.96
54850;BME280;47660;51.334;12.396;2023-05-16T01:15:41;99765.94;;;21.04;56.56
54850;BME280;47660;51.334;12.396;2023-05-16T01:18:17;99775.72;;;21.05;55.73
54850;BME280;47660;51.334;12.396;2023-05-16T01:20:58;99778.13;;;19.81;59.98
54850;BME280;47660;51.334;12.396;2023-05-16T01:23:46;99781.34;;;20.32;58.83
54850;BME280;47660;51.334;12.396;2023-05-16T01:26:27;99779.53;;;20.65;57.33
54850;BME280;47660;51.334;12.396;2023-05-16T01:28:54;99787.38;;;20.43;57.63
54850;BME280;47660;51.334;12.396;2023-05-16T01:31:21;99777.28;;;20.37;57.47
54850;BME280;47660;51.334;12.396;2023-05-16T01:33:47;99774.84;;;20.90;55.82
54850;BME280;47660;51.334;12.396;2023-05-16T01:36:28;99768.78;;;21.49;54.67
54850;BME280;47660;51.334;12.396;2023-05-16T01:38:58;99774.91;;;20.42;56.02
54850;BME280;47660;51.334;12.396;2023-05-16T01:41:48;99782.59;;;20.93;55.80
54850;BME280;47660;51.334;12.396;2023-05-16T01:44:33;99783.84;;;19.94;57.79
54850;BME280;47660;51.334;12.396;2023-05-16T01:47:06;99790.38;;;20.08;58.24
54850;BME280;47660;51.334;12.396;2023-05-16T01:49:50;99788.34;;;20.18;56.50
54850;BME280;47660;51.334;12.396;2023-05-16T01:54:52;99791.00;;;20.27;56.50
54850;BME280;47660;51.334;12.396;2023-05-16T01:57:18;99797.34;;;19.78;57.55
54850;BME280;47660;51.334;12.396;2023-05-16T01:59:48;99794.50;;;19.71;56.53
54850;BME280;47660;51.334;12.396;2023-05-16T02:02:17;99805.94;;;19.73;57.15
54850;BME280;47660;51.334;12.396;2023-05-16T02:04:45;99802.94;;;19.26;57.74
54850;BME280;47660;51.334;12.396;2023-05-16T02:07:11;99806.28;;;19.04;57.59
54850;BME280;47660;51.334;12.396;2023-05-16T02:09:40;99810.00;;;19.03;57.72
54850;BME280;47660;51.334;12.396;2023-05-16T02:12:05;99803.25;;;19.56;55.50
54850;BME280;47660;51.334;12.396;2023-05-16T02:14:31;99802.91;;;19.93;54.43
54850;BME280;47660;51.334;12.396;2023-05-16T02:16:56;99808.00;;;19.38;55.02
54850;BME280;47660;51.334;12.396;2023-05-16T02:19:22;99807.50;;;19.26;55.08
54850;BME280;47660;51.334;12.396;2023-05-16T02:21:47;99824.88;;;18.72;56.98
54850;BME280;47660;51.334;12.396;2023-05-16T02:24:15;99829.16;;;18.48;58.89
54850;BME280;47660;51.334;12.396;2023-05-16T02:26:41;99840.13;;;19.06;57.27
54850;BME280;47660;51.334;12.396;2023-05-16T02:29:06;99834.91;;;18.96;57.07
54850;BME280;47660;51.334;12.396;2023-05-16T02:31:32;99845.59;;;18.37;60.88
54850;BME280;47660;51.334;12.396;2023-05-16T02:33:59;99855.72;;;18.86;58.96
54850;BME280;47660;51.334;12.396;2023-05-16T02:36:28;99855.81;;;19.27;58.47
54850;BME280;47660;51.334;12.396;2023-05-16T02:38:53;99862.84;;;18.61;58.91
54850;BME280;47660;51.334;12.396;2023-05-16T02:41:21;99867.00;;;17.94;63.31
54850;BME280;47660;51.334;12.396;2023-05-16T02:43:47;99866.94;;;17.23;65.58
54850;BME280;47660;51.334;12.396;2023-05-16T02:46:32;99866.50;;;17.72;65.94
54850;BME280;47660;51.334;12.396;2023-05-16T02:48:58;99871.53;;;17.93;64.38
54850;BME280;47660;51.334;12.396;2023-05-16T02:51:25;99882.69;;;17.80;66.81
54850;BME280;47660;51.334;12.396;2023-05-16T02:53:51;99885.94;;;17.66;65.77
54850;BME280;47660;51.334;12.396;2023-05-16T02:56:19;99886.50;;;17.33;66.90
54850;BME280;47660;51.334;12.396;2023-05-16T02:58:47;99891.84;;;17.70;67.07
54850;BME280;47660;51.334;12.396;2023-05-16T03:01:14;99889.94;;;18.24;64.15
54850;BME280;47660;51.334;12.396;2023-05-16T03:03:40;99889.19;;;17.96;64.31
54850;BME280;47660;51.334;12.396;2023-05-16T03:06:05;99890.91;;;17.97;65.67
54850;BME280;47660;51.334;12.396;2023-05-16T03:08:31;99895.28;;;17.98;64.67
54850;BME280;47660;51.334;12.396;2023-05-16T03:10:57;99899.16;;;18.56;62.97
54850;BME280;47660;51.334;12.396;2023-05-16T03:13:22;99898.09;;;18.15;63.87
54850;BME280;47660;51.334;12.396;2023-05-16T03:15:48;99895.09;;;17.55;66.10
54850;BME280;47660;51.334;12.396;2023-05-16T03:18:14;99896.91;;;16.90;68.74
54850;BME280;47660;51.334;12.396;2023-05-16T03:20:39;99901.59;;;17.34;67.03
54850;BME280;47660;51.334;12.396;2023-05-16T03:23:07;99900.53;;;17.63;65.32
54850;BME280;47660;51.334;12.396;2023-05-16T03:25:33;99901.84;;;17.41;66.53
54850;BME280;47660;51.334;12.396;2023-05-16T03:28:00;99904.28;;;17.71;64.83
54850;BME280;47660;51.334;12.396;2023-05-16T03:30:27;99897.44;;;17.76;63.55
54850;BME280;47660;51.334;12.396;2023-05-16T03:32:55;99894.88;;;18.11;62.41
54850;BME280;47660;51.334;12.396;2023-05-16T03:35:21;99904.56;;;18.04;63.51
54850;BME280;47660;51.334;12.396;2023-05-16T03:37:47;99914.19;;;17.34;65.90
54850;BME280;47660;51.334;12.396;2023-05-16T03:40:12;99917.88;;;16.77;66.47
54850;BME280;47660;51.334;12.396;2023-05-16T03:42:38;99923.78;;;17.36;65.30
54850;BME280;47660;51.334;12.396;2023-05-16T03:45:07;99920.31;;;17.99;64.59
54850;BME280;47660;51.334;12.396;2023-05-16T03:47:33;99928.25;;;17.64;64.93
54850;BME280;47660;51.334;12.396;2023-05-16T03:49:59;99931.47;;;17.31;66.20
54850;BME280;47660;51.334;12.396;2023-05-16T03:52:24;99934.63;;;17.63;64.71
54850;BME280;47660;51.334;12.396;2023-05-16T03:54:50;99926.91;;;17.86;63.87
54850;BME280;47660;51.334;12.396;2023-05-16T03:57:18;99921.66;;;18.47;61.81
54850;BME280;47660;51.334;12.396;2023-05-16T03:59:43;99942.72;;;18.52;60.67
54850;BME280;47660;51.334;12.396;2023-05-16T04:02:08;99938.44;;;19.02;58.22
54850;BME280;47660;51.334;12.396;2023-05-16T04:04:34;99952.78;;;18.76;58.52
54850;BME280;47660;51.334;12.396;2023-05-16T04:07:00;99948.41;;;18.83;59.07
54850;BME280;47660;51.334;12.396;2023-05-16T04:09:26;99944.56;;;19.21;57.77
54850;BME280;47660;51.334;12.396;2023-05-16T04:11:52;99946.47;;;18.67;59.21
54850;BME280;47660;51.334;12.396;2023-05-16T04:14:20;99951.00;;;18.59;58.83
54850;BME280;47660;51.334;12.396;2023-05-16T04:16:46;99954.06;;;18.37;59.44
54850;BME280;47660;51.334;12.396;2023-05-16T04:19:11;99961.81;;;18.67;58.84
54850;BME280;47660;51.334;12.396;2023-05-16T04:21:39;99970.19;;;18.11;60.00
54850;BME280;47660;51.334;12.396;2023-05-16T04:24:07;99969.66;;;18.34;60.32
54850;BME280;47660;51.334;12.396;2023-05-16T04:26:35;99980.41;;;18.34;59.83
54850;BME280;47660;51.334;12.396;2023-05-16T04:29:01;99972.63;;;17.86;60.14
54850;BME280;47660;51.334;12.396;2023-05-16T04:31:30;99983.94;;;17.54;62.29
54850;BME280;47660;51.334;12.396;2023-05-16T04:33:55;99982.03;;;18.00;60.26
54850;BME280;47660;51.334;12.396;2023-05-16T04:36:24;99978.31;;;19.07;58.74
54850;BME280;47660;51.334;12.396;2023-05-16T04:38:54;99992.56;;;18.38;59.12
54850;BME280;47660;51.334;12.396;2023-05-16T04:41:20;99991.63;;;18.03;60.68
54850;BME280;47660;51.334;12.396;2023-05-16T04:43:47;99996.25;;;18.63;58.44
54850;BME280;47660;51.334;12.396;2023-05-16T04:46:12;100006.81;;;18.30;59.38
54850;BME280;47660;51.334;12.396;2023-05-16T04:48:39;100007.31;;;17.43;63.01
54850;BME280;47660;51.334;12.396;2023-05-16T04:51:05;100012.72;;;18.16;61.09
54850;BME280;47660;51.334;12.396;2023-05-16T04:53:31;100014.38;;;17.16;63.42
54850;BME280;47660;51.334;12.396;2023-05-16T04:55:56;100021.09;;;17.94;60.97
54850;BME280;47660;51.334;12.396;2023-05-16T04:58:24;100019.59;;;18.54;58.86
54850;BME280;47660;51.334;12.396;2023-05-16T05:00:52;100021.28;;;18.11;59.37
54850;BME280;47660;51.334;12.396;2023-05-16T05:03:20;100022.97;;;18.12;61.99
54850;BME280;47660;51.334;12.396;2023-05-16T05:05:45;100029.25;;;18.21;60.47
54850;BME280;47660;51.334;12.396;2023-05-16T05:08:12;100027.34;;;18.84;58.32
54850;BME280;47660;51.334;12.396;2023-05-16T05:10:37;100040.50;;;17.52;62.14
54850;BME280;47660;51.334;12.396;2023-05-16T05:13:02;100043.38;;;17.69;61.43
54850;BME280;47660;51.334;12.396;2023-05-16T05:15:29;100041.88;;;18.65;58.47
54850;BME280;47660;51.334;12.396;2023-05-16T05:17:54;100045.84;;;18.34;58.86
54850;BME280;47660;51.334;12.396;2023-05-16T05:20:20;100042.97;;;17.63;61.32
54850;BME280;47660;51.334;12.396;2023-05-16T05:22:45;100046.19;;;18.13;60.76
54850;BME280;47660;51.334;12.396;2023-05-16T05:25:11;100038.72;;;17.61;61.92
54850;BME280;47660;51.334;12.396;2023-05-16T05:27:36;100033.28;;;17.52;62.09
54850;BME280;47660;51.334;12.396;2023-05-16T05:30:07;100035.44;;;18.84;60.35
54850;BME280;47660;51.334;12.396;2023-05-16T05:32:33;100043.16;;;17.98;61.23
54850;BME280;47660;51.334;12.396;2023-05-16T05:34:58;100049.00;;;18.11;61.15
54850;BME280;47660;51.334;12.396;2023-05-16T05:37:26;100048.72;;;18.85;58.92
54850;BME280;47660;51.334;12.396;2023-05-16T05:39:52;100044.03;;;17.52;62.28
54850;BME280;47660;51.334;12.396;2023-05-16T05:42:19;100046.66;;;17.62;61.74
54850;BME280;47660;51.334;12.396;2023-05-16T05:44:45;100056.75;;;17.22;63.83
54850;BME280;47660;51.334;12.396;2023-05-16T05:47:15;100055.03;;;18.05;61.69
54850;BME280;47660;51.334;12.396;2023-05-16T05:49:41;100066.59;;;17.88;60.76
54850;BME280;47660;51.334;12.396;2023-05-16T05:52:08;100064.06;;;17.58;62.07
54850;BME280;47660;51.334;12.396;2023-05-16T05:54:36;100071.09;;;18.60;59.18
54850;BME280;47660;51.334;12.396;2023-05-16T05:57:02;100069.81;;;18.09;59.71
54850;BME280;47660;51.334;12.396;2023-05-16T05:59:30;100069.34;;;18.50;59.84
54850;BME280;47660;51.334;12.396;2023-05-16T06:01:55;100066.75;;;19.11;57.13
54850;BME280;47660;51.334;12.396;2023-05-16T06:04:21;100065.22;;;19.09;58.04
54850;BME280;47660;51.334;12.396;2023-05-16T06:06:49;100073.84;;;18.23;58.88
54850;BME280;47660;51.334;12.396;2023-05-16T06:09:19;100067.00;;;19.26;57.50
54850;BME280;47660;51.334;12.396;2023-05-16T06:11:48;100069.88;;;18.98;58.63
54850;BME280;47660;51.334;12.396;2023-05-16T06:14:16;100068.53;;;18.14;60.26
54850;BME280;47660;51.334;12.396;2023-05-16T06:16:41;100068.84;;;18.29;58.98
54850;BME280;47660;51.334;12.396;2023-05-16T06:19:09;100078.78;;;16.69;64.70
54850;BME280;47660;51.334;12.396;2023-05-16T06:21:36;100076.81;;;17.56;62.34
54850;BME280;47660;51.334;12.396;2023-05-16T06:24:04;100077.53;;;17.30;62.75
54850;BME280;47660;51.334;12.396;2023-05-16T06:26:35;100086.28;;;18.43;59.52
54850;BME280;47660;51.334;12.396;2023-05-16T06:29:00;100092.19;;;18.46;59.14
54850;BME280;47660;51.334;12.396;2023-05-16T06:31:26;100087.53;;;18.12;59.37
54850;BME280;47660;51.334;12.396;2023-05-16T06:33:52;100090.13;;;19.45;57.27
54850;BME280;47660;51.334;12.396;2023-05-16T06:36:18;100089.75;;;18.53;57.79
54850;BME280;47660;51.334;12.396;2023-05-16T06:38:43;100086.03;;;19.25;56.47
54850;BME280;47660;51.334;12.396;2023-05-16T06:41:09;100092.75;;;19.21;56.52
54850;BME280;47660;51.334;12.396;2023-05-16T06:43:34;100099.59;;;18.70;58.07
54850;BME280;47660;51.334;12.396;2023-05-16T06:46:03;100099.34;;;18.37;60.44
54850;BME280;47660;51.334;12.396;2023-05-16T06:48:28;100100.16;;;18.56;59.07
54850;BME280;47660;51.334;12.396;2023-05-16T06:50:57;100108.25;;;18.38;59.08
54850;BME280;47660;51.334;12.396;2023-05-16T06:53:22;100107.00;;;18.95;57.15
54850;BME280;47660;51.334;12.396;2023-05-16T06:55:51;100112.72;;;18.11;60.19
54850;BME280;47660;51.334;12.396;2023-05-16T06:58:17;100108.00;;;19.12;57.27
54850;BME280;47660;51.334;12.396;2023-05-16T07:00:42;100113.63;;;18.56;58.79
54850;BME280;47660;51.334;12.396;2023-05-16T07:03:08;100115.50;;;19.26;56.84
54850;BME280;47660;51.334;12.396;2023-05-16T07:05:33;100120.38;;;20.09;55.09
54850;BME280;47660;51.334;12.396;2023-05-16T07:08:01;100119.78;;;19.45;56.91
54850;BME280;47660;51.334;12.396;2023-05-16T07:10:27;100130.34;;;19.30;56.53
54850;BME280;47660;51.334;12.396;2023-05-16T07:12:52;100132.63;;;18.36;59.59
54850;BME280;47660;51.334;12.396;2023-05-16T07:15:18;100138.59;;;19.03;57.63
54850;BME280;47660;51.334;12.396;2023-05-16T07:17:46;100134.41;;;19.08;58.16
54850;BME280;47660;51.334;12.396;2023-05-16T07:20:11;100139.41;;;18.22;60.92
54850;BME280;47660;51.334;12.396;2023-05-16T07:22:39;100146.19;;;19.34;58.10
54850;BME280;47660;51.334;12.396;2023-05-16T07:25:05;100162.75;;;18.58;60.92
54850;BME280;47660;51.334;12.396;2023-05-16T07:27:36;100159.84;;;18.33;60.06
54850;BME280;47660;51.334;12.396;2023-05-16T07:30:06;100156.03;;;18.80;59.91
54850;BME280;47660;51.334;12.396;2023-05-16T07:32:33;100150.00;;;18.78;59.01
54850;BME280;47660;51.334;12.396;2023-05-16T07:34:58;100150.78;;;19.15;57.71
54850;BME280;47660;51.334;12.396;2023-05-16T07:37:24;100158.47;;;20.06;55.83
54850;BME280;47660;51.334;12.396;2023-05-16T07:39:52;100156.91;;;18.99;57.57
54850;BME280;47660;51.334;12.396;2023-05-16T07:42:20;100155.22;;;18.80;60.97
54850;BME280;47660;51.334;12.396;2023-05-16T07:44:48;100150.34;;;18.83;59.98
54850;BME280;47660;51.334;12.396;2023-05-16T07:47:15;100147.03;;;19.69;57.09
54850;BME280;47660;51.334;12.396;2023-05-16T07:49:43;100144.69;;;20.17;54.70
54850;BME280;47660;51.334;12.396;2023-05-16T07:52:09;100150.63;;;19.43;56.38
54850;BME280;47660;51.334;12.396;2023-05-16T07:54:35;100162.97;;;19.01;58.14
54850;BME280;47660;51.334;12.396;2023-05-16T07:57:00;100144.50;;;19.75;55.56
54850;BME280;47660;51.334;12.396;2023-05-16T07:59:27;100153.63;;;19.40;57.08
54850;BME280;47660;51.334;12.396;2023-05-16T08:01:52;100142.66;;;20.27;54.60
54850;BME280;47660;51.334;12.396;2023-05-16T08:04:19;100130.50;;;20.31;54.36
54850;BME280;47660;51.334;12.396;2023-05-16T08:06:45;100129.97;;;20.03;53.91
54850;BME280;47660;51.334;12.396;2023-05-16T08:09:10;100127.19;;;20.54;52.88
54850;BME280;47660;51.334;12.396;2023-05-16T08:11:36;100132.38;;;19.80;54.85
54850;BME280;47660;51.334;12.396;2023-05-16T08:14:02;100125.09;;;19.64;55.25
54850;BME280;47660;51.334;12.396;2023-05-16T08:16:29;100125.31;;;20.63;53.51
54850;BME280;47660;51.334;12.396;2023-05-16T08:18:55;100137.09;;;19.69;54.55
54850;BME280;47660;51.334;12.396;2023-05-16T08:21:23;100120.91;;;21.03;52.35
54850;BME280;47660;51.334;12.396;2023-05-16T08:23:51;100125.41;;;21.28;51.04
54850;BME280;47660;51.334;12.396;2023-05-16T08:26:19;100118.47;;;21.42;51.20
54850;BME280;47660;51.334;12.396;2023-05-16T08:28:49;100118.59;;;20.84;52.84
54850;BME280;47660;51.334;12.396;2023-05-16T08:31:15;100120.75;;;19.36;56.38
54850;BME280;47660;51.334;12.396;2023-05-16T08:33:40;100130.22;;;19.83;54.54
54850;BME280;47660;51.334;12.396;2023-05-16T08:36:08;100119.19;;;21.27;53.54
54850;BME280;47660;51.334;12.396;2023-05-16T08:38:34;100122.94;;;19.67;55.33
54850;BME280;47660;51.334;12.396;2023-05-16T08:40:59;100117.88;;;20.32;53.81
54850;BME280;47660;51.334;12.396;2023-05-16T08:43:25;100110.25;;;21.66;49.69
54850;BME280;47660;51.334;12.396;2023-05-16T08:45:50;100109.38;;;21.26;50.79
54850;BME280;47660;51.334;12.396;2023-05-16T08:48:20;100103.50;;;20.23;52.93
54850;BME280;47660;51.334;12.396;2023-05-16T08:50:47;100111.75;;;19.97;53.78
54850;BME280;47660;51.334;12.396;2023-05-16T08:53:14;100111.31;;;20.84;52.40
54850;BME280;47660;51.334;12.396;2023-05-16T08:55:43;100108.94;;;21.06;51.71
54850;BME280;47660;51.334;12.396;2023-05-16T08:58:10;100122.22;;;20.16;53.77
54850;BME280;47660;51.334;12.396;2023-05-16T09:00:38;100126.31;;;20.29;53.05
54850;BME280;47660;51.334;12.396;2023-05-16T09:03:04;100133.09;;;20.41;52.83
54850;BME280;47660;51.334;12.396;2023-05-16T09:05:30;100141.16;;;21.07;51.74
54850;BME280;47660;51.334;12.396;2023-05-16T09:07:57;100137.78;;;20.31;52.57
54850;BME280;47660;51.334;12.396;2023-05-16T09:10:25;100143.28;;;21.45;51.16
54850;BME280;47660;51.334;12.396;2023-05-16T09:12:53;100141.50;;;21.69;49.56
54850;BME280;47660;51.334;12.396;2023-05-16T09:15:19;100136.59;;;20.75;50.79
54850;BME280;47660;51.334;12.396;2023-05-16T09:17:47;100153.53;;;21.58;49.16
54850;BME280;47660;51.334;12.396;2023-05-16T09:20:18;100145.66;;;22.43;47.78
54850;BME280;47660;51.334;12.396;2023-05-16T09:22:56;100156.31;;;21.90;48.80
54850;BME280;47660;51.334;12.396;2023-05-16T09:25:30;100157.50;;;21.31;50.53
54850;BME280;47660;51.334;12.396;2023-05-16T09:27:57;100157.84;;;21.28;51.27
54850;BME280;47660;51.334;12.396;2023-05-16T09:30:30;100159.94;;;20.68;51.42
54850;BME280;47660;51.334;12.396;2023-05-16T09:32:56;100161.63;;;20.85;50.95
54850;BME280;47660;51.334;12.396;2023-05-16T09:35:25;100178.81;;;20.76;50.37
54850;BME280;47660;51.334;12.396;2023-05-16T09:37:50;100179.56;;;19.75;51.89
54850;BME280;47660;51.334;12.396;2023-05-16T09:40:22;100181.50;;;21.26;49.94
54850;BME280;47660;51.334;12.396;2023-05-16T09:43:04;100188.22;;;21.46;48.94
54850;BME280;47660;51.334;12.396;2023-05-16T09:45:34;100187.34;;;21.62;48.80
54850;BME280;47660;51.334;12.396;2023-05-16T09:48:10;100190.38;;;21.67;48.31
54850;BME280;47660;51.334;12.396;2023-05-16T09:50:39;100202.59;;;20.64;49.68
54850;BME280;47660;51.334;12.396;2023-05-16T09:53:07;100207.97;;;20.31;50.97
54850;BME280;47660;51.334;12.396;2023-05-16T09:55:43;100210.03;;;20.62;50.64
54850;BME280;47660;51.334;12.396;2023-05-16T09:58:09;100207.69;;;21.00;50.17
54850;BME280;47660;51.334;12.396;2023-05-16T10:00:36;100196.16;;;20.48;50.74
54850;BME280;47660;51.334;12.396;2023-05-16T10:03:03;100205.13;;;19.89;51.84
54850;BME280;47660;51.334;12.396;2023-05-16T10:05:31;100201.47;;;19.99;52.08
54850;BME280;47660;51.334;12.396;2023-05-16T10:07:57;100195.31;;;20.40;51.79
54850;BME280;47660;51.334;12.396;2023-05-16T10:10:23;100189.00;;;20.14;51.58
54850;BME280;47660;51.334;12.396;2023-05-16T10:12:50;100201.97;;;20.02;52.30
54850;BME280;47660;51.334;12.396;2023-05-16T10:15:16;100212.34;;;19.89;51.18
54850;BME280;47660;51.334;12.396;2023-05-16T10:17:44;100208.66;;;19.64;51.75
54850;BME280;47660;51.334;12.396;2023-05-16T10:20:11;100209.94;;;19.86;51.13
54850;BME280;47660;51.334;12.396;2023-05-16T10:22:42;100200.41;;;21.26;48.48
54850;BME280;47660;51.334;12.396;2023-05-16T10:25:23;100217.66;;;20.67;49.14
54850;BME280;47660;51.334;12.396;2023-05-16T10:27:53;100221.50;;;21.63;47.92
54850;BME280;47660;51.334;12.396;2023-05-16T10:30:22;100210.19;;;21.43;46.70
54850;BME280;47660;51.334;12.396;2023-05-16T10:32:49;100207.22;;;21.13;47.71
54850;BME280;47660;51.334;12.396;2023-05-16T10:35:16;100214.97;;;21.16;48.27
54850;BME280;47660;51.334;12.396;2023-05-16T10:37:41;100221.66;;;20.46;49.30
54850;BME280;47660;51.334;12.396;2023-05-16T10:40:21;100219.56;;;22.29;46.44
54850;BME280;47660;51.334;12.396;2023-05-16T10:42:57;100223.19;;;21.64;46.41
54850;BME280;47660;51.334;12.396;2023-05-16T10:45:23;100227.56;;;19.98;49.65
54850;BME280;47660;51.334;12.396;2023-05-16T10:48:02;100224.69;;;20.51;49.48
54850;BME280;47660;51.334;12.396;2023-05-16T10:50:39;100231.63;;;21.70;47.47
54850;BME280;47660;51.334;12.396;2023-05-16T10:55:43;100237.97;;;21.12;49.07
54850;BME280;47660;51.334;12.396;2023-05-16T10:58:09;100237.44;;;20.24;50.14
54850;BME280;47660;51.334;12.396;2023-05-16T11:00:34;100246.09;;;20.36;50.18
54850;BME280;47660;51.334;12.396;2023-05-16T11:03:04;100234.00;;;20.65;50.86
54850;BME280;47660;51.334;12.396;2023-05-16T11:05:30;100236.84;;;19.96;51.42
54850;BME280;47660;51.334;12.396;2023-05-16T11:08:22;100242.75;;;19.99;49.15
54850;BME280;47660;51.334;12.396;2023-05-16T11:10:48;100240.25;;;19.45;49.19
54850;BME280;47660;51.334;12.396;2023-05-16T11:13:13;100244.63;;;19.72;49.43
54850;BME280;47660;51.334;12.396;2023-05-16T11:15:43;100243.06;;;19.70;49.95
54850;BME280;47660;51.334;12.396;2023-05-16T11:18:14;100231.53;;;21.05;47.82
54850;BME280;47660;51.334;12.396;2023-05-16T11:20:40;100231.72;;;20.19;48.88
54850;BME280;47660;51.334;12.396;2023-05-16T11:28:15;100232.88;;;19.29;49.72
54850;BME280;47660;51.334;12.396;2023-05-16T11:30:46;100233.38;;;20.96;47.26
54850;BME280;47660;51.334;12.396;2023-05-16T11:33:14;100231.16;;;21.33;45.58
54850;BME280;47660;51.334;12.396;2023-05-16T11:35:40;100226.44;;;21.27;45.65
54850;BME280;47660;51.334;12.396;2023-05-16T11:38:11;100233.53;;;20.70;47.22
54850;BME280;47660;51.334;12.396;2023-05-16T11:40:41;100236.53;;;20.75;47.93
54850;BME280;47660;51.334;12.396;2023-05-16T11:43:06;100255.34;;;19.38;48.87
54850;BME280;47660;51.334;12.396;2023-05-16T11:45:32;100262.47;;;20.00;47.80
54850;BME280;47660;51.334;12.396;2023-05-16T11:48:01;100258.16;;;20.67;47.45
54850;BME280;47660;51.334;12.396;2023-05-16T11:50:28;100265.63;;;20.98;45.59
54850;BME280;47660;51.334;12.396;2023-05-16T11:52:55;100263.94;;;21.30;45.47
54850;BME280;47660;51.334;12.396;2023-05-16T11:55:23;100263.81;;;22.04;44.01
54850;BME280;47660;51.334;12.396;2023-05-16T11:57:52;100251.06;;;21.73;43.70
54850;BME280;47660;51.334;12.396;2023-05-16T12:00:22;100238.63;;;21.95;43.11
54850;BME280;47660;51.334;12.396;2023-05-16T12:02:50;100244.81;;;21.56;43.67
54850;BME280;47660;51.334;12.396;2023-05-16T12:05:16;100239.56;;;21.71;44.41
54850;BME280;47660;51.334;12.396;2023-05-16T12:07:43;100242.16;;;22.04;43.71
54850;BME280;47660;51.334;12.396;2023-05-16T12:10:11;100238.09;;;21.35;44.43
54850;BME280;47660;51.334;12.396;2023-05-16T12:12:38;100233.38;;;22.89;42.97
54850;BME280;47660;51.334;12.396;2023-05-16T12:15:06;100240.41;;;21.72;43.95
54850;BME280;47660;51.334;12.396;2023-05-16T12:17:36;100230.28;;;21.49;44.63
54850;BME280;47660;51.334;12.396;2023-05-16T12:20:06;100227.91;;;21.46;44.31
54850;BME280;47660;51.334;12.396;2023-05-16T12:22:39;100236.28;;;21.92;44.14
54850;BME280;47660;51.334;12.396;2023-05-16T12:25:29;100244.38;;;21.11;44.58
54850;BME280;47660;51.334;12.396;2023-05-16T12:27:59;100238.09;;;21.02;44.20
54850;BME280;47660;51.334;12.396;2023-05-16T12:30:26;100231.91;;;21.91;43.32
54850;BME280;47660;51.334;12.396;2023-05-16T12:32:56;100227.38;;;23.25;40.97
54850;BME280;47660;51.334;12.396;2023-05-16T12:35:24;100228.13;;;23.10;41.27
54850;BME280;47660;51.334;12.396;2023-05-16T12:37:49;100229.94;;;23.86;39.88
54850;BME280;47660;51.334;12.396;2023-05-16T12:40:16;100225.84;;;22.52;41.58
54850;BME280;47660;51.334;12.396;2023-05-16T12:42:48;100219.50;;;22.05;41.43
54850;BME280;47660;51.334;12.396;2023-05-16T12:45:16;100202.19;;;22.93;38.74
54850;BME280;47660;51.334;12.396;2023-05-16T12:47:42;100210.81;;;23.35;38.37
54850;BME280;47660;51.334;12.396;2023-05-16T12:50:09;100210.00;;;23.64;37.94
54850;BME280;47660;51.334;12.396;2023-05-16T12:52:36;100204.97;;;23.08;38.59
54850;BME280;47660;51.334;12.396;2023-05-16T12:55:04;100209.34;;;22.39;38.51
54850;BME280;47660;51.334;12.396;2023-05-16T12:57:34;100225.94;;;22.04;39.16
54850;BME280;47660;51.334;12.396;2023-05-16T12:59:59;100227.03;;;22.18;38.26